AirNav   BOSE ProFlight Aviation Headset
 
 1089 users online  

TF8 Tinley Park Helistop
Chicago/Tinley Park, Illinois, USA

GOING TO CHICAGO/TINLEY PARK?


FAA INFORMATION EFFECTIVE 21 JUNE 2018

Location

FAA Identifier: TF8
Lat/Long: 41-33-33.0000N / 087-48-21.0000W
41-33.550000N / 087-48.350000W
41.5591667 / -87.8058333
(estimated)
Elevation: 760 ft. / 232 m (estimated)
Variation: 02W (1995)
From city: 20 miles SSW of central business district of the associated city
Time zone: UTC -5 (UTC -6 during Standard Time)
Zip code: 60477

Heliport Operations

Heliport use: Open to the public
Activation date: 02/1999
Control tower: no
ARTCC: CHICAGO CENTER
FSS: KANKAKEE FLIGHT SERVICE STATION
NOTAMs facility: IKK (NOTAM-D service available)
Attendance: UNATTENDED
Wind indicator: lighted
Segmented circle: no
Lights: SS-SR

Heliport Communications

CTAF: 122.9
WX AWOS-AV at C56 (12 nm SE): 119.125 (708-534-5256)
WX AWOS-3 at IGQ (12 nm E): 119.275 (708-895-9526)
WX AWOS-3 at LOT (13 nm W): 118.525 (815-588-4802)
WX ASOS at MDW (14 nm N): PHONE 773-884-4424
WX AWOS-3 at JOT (17 nm W): 119.975 (815-730-9560)
WX AWOS-3PT at GYY (18 nm E): 134.575 (219-944-0010)

Nearby radio navigation aids

VOR radial/distance  VOR name  Freq  Var
CGTr284/10.9CHICAGO HEIGHTS VORTAC114.2002E
EONr356/17.4PEOTONE VORTAC113.2002E
JOTr086/23.0JOLIET VOR/DME112.3002E
ORDr168/26.1CHICAGO O'HARE VOR/DME113.9002E
IKKr004/29.2KANKAKEE VOR/DME111.6000E
DPAr127/31.4DUPAGE VOR/DME108.4002E

Heliport Services

Parking: tiedowns

Runway Information

Helipad H1

Dimensions: 40 x 40 ft. / 12 x 12 m
60 FT BY 60 FT HELICOPTER PARKING PAD LOCATED 75 FT NORTH OF LNDG PAD.
Surface: asphalt, in fair condition
Runway edge lights: FATO MEASURES 100 FT BY 100 FT.
Traffic pattern: leftleft

Heliport Ownership and Management from official FAA records

Ownership: Publicly-owned
Owner: VILLAGE OF TINLEY PARK
16250 S. OAK PARK AVENUE
TINLEY PARK, IL 60477
Phone 708-444-5000
24 HR NON-EMERGENCY NUMBER 708-444-5300.
Manager: PAT CARR, DIR EMER MGMT
17355 S. 68TH CT
TINLEY PARK, IL 60477
Phone 708-444-5601
24 HR DISPATCH CTR 708-444-5300

Heliport Operational Statistics

Aircraft operations: 30/year *
100% transient general aviation
* for 12-month period ending 31 January 2017

Additional Remarks

32 FT UNLIT PLINES 95 FT SOUTH; 40 FT BLDG 120 FT NW; & 33 FT LGTD POLES 293 FT W; 90 FT LGTD TWR 250 FT NW OF PAD.
INGRESS/EGRESS ROUTES ARE 090 DEGS & 270 DEGS.

Instrument Procedures

There are no published instrument procedures at TF8.

Some nearby airports with instrument procedures:

C56 - Bult Field Airport (12 nm SE)
KIGQ - Lansing Municipal Airport (12 nm E)
KLOT - Lewis University Airport (13 nm W)
KMDW - Chicago Midway International Airport (14 nm N)
1C5 - Bolingbrook's Clow International Airport (17 nm NW)
KGYY - Gary/Chicago International Airport (18 nm E)
05C - Griffith-Merrillville Airport (18 nm E)
 
Loc | Ops | Rwys | IFR | FBO | Links
Com | Nav | Svcs | Stats | Notes

AirNav Hotels Sweepstakes
 
Area around TF8 (Tinley Park Helistop)
 
Road maps at: MapQuest Bing Google
 
Aerial photo
No photo
 
Sectional chart

 
Airport distance calculator
Flying to Tinley Park Helistop? Find the distance to fly.

From to TF8

Sunrise and sunset
Times for 21-Jun-2018
 Local
(UTC-5)
 Zulu
(UTC)
Morning civil twilight04:4409:44
Sunrise05:1810:18
Sunset20:2801:28
Evening civil twilight21:0202:02

Current date and time
Zulu (UTC)  22-Jun-2018 01:26:08
Local (UTC-5)  21-Jun-2018 20:26:08
 
METAR
KIGQ 
12nm E 
220115Z AUTO 07006KT 10SM BKN019 OVC028 19/18 A2977 RMK AO2 T01940182
KLOT 
14nm W 
220115Z AUTO 06012KT 4SM BR OVC009 19/18 A2976 RMK AO2 P0001 T01850176
KMDW 
14nm N 
220053Z 06011KT 9SM FEW014 OVC025 19/17 A2978 RMK AO2 SLP078 T01890167
KJOT 
16nm W 
220115Z AUTO 06006KT 4SM BR OVC012 20/20 A2976 RMK AO2 T02000195
4IS3 
16nm NE 
SuperAWOS
220055Z AUTO 10SM A2983
KGYY 
18nm E 
220045Z 12012KT 10SM SCT015 OVC025 20/18 A2977
TAF
KMDW 
14nm N 
212103Z 2121/2224 08012G18KT 5SM -SHRA BR SCT005 OVC008 FM220100 07013G19KT 4SM -SHRA BKN009 OVC020 FM220500 05013G19KT 4SM RA BR OVC007 TEMPO 2206/2210 1SM +RA BR OVC005 FM221300 05013G19KT 6SM -SHRA OVC006 FM222000 04012G18KT P6SM OVC008
KGYY 
18nm E 
212103Z 2121/2218 06012G19KT 5SM -SHRA BR SCT004 OVC007 FM220100 07013G19KT 4SM -SHRA BKN007 OVC020 FM220500 05013G19KT 4SM RA BR OVC007 TEMPO 2205/2209 1SM +RA BR OVC004 FM221300 05013G19KT 6SM -SHRA OVC005
NOTAMs
Click for the latest NOTAMs
NOTAMs are issued by the DoD/FAA and will open in a separate window not controlled by AirNav.

 

 
 

Would you like to see your business listed on this page?

 If your business provides an interesting product or service to pilots, flight crews, aircraft, or users of the Tinley Park Helistop, you should consider listing it here.  To start the listing process, click on the button below
 
Add a business
 

Other Pages about Tinley Park Helistop

Update a link
 
Copyright © AirNav, LLC. All rights reserved. Privacy Policy  Contact